METAR Data
IDs: Format: Raw Decoded Include TAF

Data at: 0150 UTC 10 Dec 2022

METAR for:KHAO (Hamilton/Butler Cnty, OH, US)
Text:KHAO 100053Z AUTO 35003KT 7SM OVC015 08/06 A3014 RMK AO2 SLP210 T00780061
Temperature: 7.8°C ( 46°F)
Dewpoint: 6.1°C ( 43°F) [RH = 89%]
Pressure (altimeter):30.14 inches Hg (1020.7 mb) [Sea level pressure: 1021.0 mb]
Winds:from the N (350 degrees) at 3 MPH (3 knots; 1.5 m/s)
Visibility: 7 sm ( 11 km)
Ceiling:1500 feet AGL
Clouds: overcast cloud deck at 1500 feet AGL
QC Flag:automated observation with no human augmentation